Time;durP1;ratioP1;P1;durP2;ratioP2;P2;SDS_P1;SDS_P2;PMS_P1;PMS_P2;Temp;Humidity;BMP_temperature;BMP_pressure;BME280_temperature;BME280_humidity;BME280_pressure;Samples;Min_cycle;Max_cycle;Signal;HPM_P1;HPM_P2
2022/07/25 00:00:48;;;;;;;6.85;4.22;;;21.20;99.90;;;;;;7394744;19;20489;-89
2022/07/25 00:03:14;;;;;;;6.50;4.97;;;21.20;99.90;;;;;;7393398;19;20018;-88
2022/07/25 00:05:40;;;;;;;7.47;4.85;;;21.10;99.90;;;;;;7394550;19;20483;-89
2022/07/25 00:08:06;;;;;;;5.53;4.45;;;21.10;99.90;;;;;;7393335;19;20021;-88
2022/07/25 00:10:31;;;;;;;6.57;5.38;;;21.10;99.90;;;;;;7395071;19;20078;-89
2022/07/25 00:12:57;;;;;;;6.15;5.47;;;21.10;99.90;;;;;;7392013;19;20119;-88
2022/07/25 00:15:23;;;;;;;7.60;5.78;;;21.10;99.90;;;;;;7396120;19;20018;-89
2022/07/25 00:17:49;;;;;;;7.43;5.50;;;21.10;99.90;;;;;;7394723;19;20062;-89
2022/07/25 00:20:15;;;;;;;6.43;5.68;;;21.20;99.90;;;;;;7393000;19;20440;-88
2022/07/25 00:22:41;;;;;;;7.60;5.55;;;21.20;99.90;;;;;;7393463;19;20018;-88
2022/07/25 00:25:07;;;;;;;6.28;5.30;;;21.10;99.90;;;;;;7391681;19;20489;-87
2022/07/25 00:27:33;;;;;;;8.82;5.97;;;21.10;99.90;;;;;;7392963;19;20014;-88
2022/07/25 00:29:59;;;;;;;6.32;5.63;;;21.10;99.90;;;;;;7400060;19;20038;-88
2022/07/25 00:32:25;;;;;;;9.50;6.35;;;21.10;99.90;;;;;;7400525;19;20017;-88
2022/07/25 00:34:51;;;;;;;9.07;6.43;;;21.00;99.90;;;;;;7400948;19;20022;-89
2022/07/25 00:37:17;;;;;;;7.63;6.25;;;20.90;99.90;;;;;;7399127;19;20015;-89
2022/07/25 00:39:43;;;;;;;7.30;6.60;;;20.90;99.90;;;;;;7403147;19;20015;-88
2022/07/25 00:42:09;;;;;;;12.40;7.18;;;20.90;99.90;;;;;;7399157;19;20006;-88
2022/07/25 00:44:35;;;;;;;10.90;7.53;;;21.00;99.90;;;;;;7401800;19;20014;-89
2022/07/25 00:47:01;;;;;;;9.20;7.38;;;21.00;99.90;;;;;;7399922;19;20011;-89
2022/07/25 00:49:26;;;;;;;7.85;7.15;;;21.00;99.90;;;;;;7400911;19;20074;-89
2022/07/25 00:51:53;;;;;;;9.27;8.38;;;20.90;99.90;;;;;;7402451;19;20015;-88
2022/07/25 00:54:20;;;;;;;8.10;7.13;;;21.00;99.90;;;;;;7401089;19;20010;-88
2022/07/25 00:56:47;;;;;;;8.70;7.90;;;21.00;99.90;;;;;;7398682;19;20026;-88
2022/07/25 00:59:13;;;;;;;11.07;8.50;;;21.00;99.90;;;;;;7402351;19;20048;-89
2022/07/25 01:01:39;;;;;;;10.20;8.38;;;20.90;99.90;;;;;;7400225;19;20029;-88
2022/07/25 01:04:05;;;;;;;10.40;9.25;;;21.00;99.90;;;;;;7401901;19;20014;-89
2022/07/25 01:06:31;;;;;;;8.45;7.57;;;21.00;99.90;;;;;;7398962;19;20364;-88
2022/07/25 01:08:58;;;;;;;10.57;9.48;;;21.00;99.90;;;;;;7398812;19;20014;-87
2022/07/25 01:11:24;;;;;;;11.25;9.57;;;20.90;99.90;;;;;;7400052;19;20014;-88
2022/07/25 01:13:50;;;;;;;12.02;9.70;;;20.90;99.90;;;;;;7398918;19;20037;-88
2022/07/25 01:16:16;;;;;;;12.52;9.95;;;21.00;99.90;;;;;;7402621;19;20025;-89
2022/07/25 01:18:42;;;;;;;13.55;11.25;;;21.00;99.90;;;;;;7397028;19;20022;-89
2022/07/25 01:21:08;;;;;;;15.23;10.23;;;21.00;99.90;;;;;;7401145;19;20085;-88
2022/07/25 01:23:34;;;;;;;7.00;6.07;;;21.00;99.90;;;;;;7395635;19;20022;-88
2022/07/25 01:26:00;;;;;;;12.43;11.23;;;21.10;99.90;;;;;;7399470;19;20050;-88
2022/07/25 01:28:26;;;;;;;12.93;11.27;;;21.10;99.90;;;;;;7408714;19;20029;-86
2022/07/25 01:30:51;;;;;;;16.33;12.20;;;21.00;99.90;;;;;;7409212;19;20022;-89
2022/07/25 01:33:20;;;;;;;13.20;11.88;;;20.90;99.90;;;;;;7396031;19;20018;-88
2022/07/25 01:35:46;;;;;;;12.80;11.15;;;20.80;99.90;;;;;;7400602;19;20046;-89
2022/07/25 01:38:13;;;;;;;10.57;9.55;;;20.70;99.90;;;;;;7397605;19;20015;-87
2022/07/25 01:40:39;;;;;;;14.55;12.65;;;20.70;99.90;;;;;;7399763;19;20018;-89
2022/07/25 01:43:05;;;;;;;11.98;10.25;;;20.80;99.90;;;;;;7399793;19;20500;-88
2022/07/25 01:45:31;;;;;;;14.57;12.35;;;20.80;99.90;;;;;;7402060;19;20048;-87
2022/07/25 01:47:57;;;;;;;13.98;12.32;;;20.70;99.90;;;;;;7398769;19;20018;-89
2022/07/25 01:50:23;;;;;;;13.20;11.77;;;20.70;99.90;;;;;;7399170;19;20011;-88
2022/07/25 01:52:49;;;;;;;14.48;12.82;;;20.70;99.90;;;;;;7400443;19;20014;-89
2022/07/25 01:55:15;;;;;;;10.00;9.02;;;20.70;99.90;;;;;;7397506;19;20022;-89
2022/07/25 01:57:41;;;;;;;15.65;13.10;;;20.70;99.90;;;;;;7398259;19;20030;-89
2022/07/25 02:00:09;;;;;;;14.70;12.90;;;20.60;99.90;;;;;;7397348;19;20467;-87
2022/07/25 02:02:35;;;;;;;13.90;12.40;;;20.60;99.90;;;;;;7399058;19;20048;-88
2022/07/25 02:05:01;;;;;;;17.10;14.00;;;20.40;99.90;;;;;;7400963;19;20022;-88
2022/07/25 02:07:27;;;;;;;15.80;13.80;;;20.30;99.90;;;;;;7398241;19;20015;-89
2022/07/25 02:09:53;;;;;;;14.75;13.23;;;20.30;99.90;;;;;;7398135;19;20043;-88
2022/07/25 02:12:19;;;;;;;16.77;14.50;;;20.30;99.90;;;;;;7400349;19;20018;-88
2022/07/25 02:14:44;;;;;;;15.07;13.45;;;20.20;99.90;;;;;;7395061;19;20039;-88
2022/07/25 02:17:10;;;;;;;14.65;13.20;;;20.20;99.90;;;;;;7393679;19;20011;-88
2022/07/25 02:19:36;;;;;;;16.08;14.38;;;20.20;99.90;;;;;;7396886;19;20048;-88
2022/07/25 02:22:02;;;;;;;16.27;14.57;;;20.10;99.90;;;;;;7399082;19;20438;-88
2022/07/25 02:24:28;;;;;;;16.58;14.73;;;20.10;99.90;;;;;;7395912;19;20038;-88
2022/07/25 02:26:54;;;;;;;16.35;14.65;;;20.10;99.90;;;;;;7393305;19;20385;-89
2022/07/25 02:29:20;;;;;;;15.80;14.30;;;20.10;99.90;;;;;;7376557;19;20023;-89
2022/07/25 02:31:46;;;;;;;15.82;14.27;;;20.00;99.90;;;;;;7398051;19;20019;-88
2022/07/25 02:34:12;;;;;;;19.35;14.82;;;20.00;99.90;;;;;;7399181;19;20085;-89
2022/07/25 02:36:38;;;;;;;17.17;15.32;;;20.10;99.90;;;;;;7395524;19;20010;-88
2022/07/25 02:39:04;;;;;;;16.65;14.95;;;20.10;99.90;;;;;;7399463;19;20021;-88
2022/07/25 02:41:30;;;;;;;16.80;15.13;;;20.10;99.90;;;;;;7398443;19;20022;-88
2022/07/25 02:43:56;;;;;;;16.10;14.40;;;20.00;99.90;;;;;;7394494;19;20426;-88
2022/07/25 02:46:22;;;;;;;17.30;15.45;;;20.00;99.90;;;;;;7399448;19;20360;-88
2022/07/25 02:48:47;;;;;;;16.45;14.80;;;20.00;99.90;;;;;;7399753;19;20038;-88
2022/07/25 02:51:13;;;;;;;18.90;15.77;;;20.00;99.90;;;;;;7396697;19;20010;-88
2022/07/25 02:53:39;;;;;;;17.95;15.63;;;19.90;99.90;;;;;;7401820;19;20105;-89
2022/07/25 02:56:05;;;;;;;16.73;15.07;;;19.90;99.90;;;;;;7404027;19;20022;-88
2022/07/25 02:58:31;;;;;;;16.52;14.93;;;19.90;99.90;;;;;;7396287;19;20025;-88
2022/07/25 03:00:57;;;;;;;18.23;16.42;;;19.80;99.90;;;;;;7395948;19;20440;-89
2022/07/25 03:03:23;;;;;;;16.63;14.95;;;19.80;99.90;;;;;;7395460;19;20493;-88
2022/07/25 03:05:49;;;;;;;17.35;15.73;;;19.70;99.90;;;;;;7395407;19;20018;-88
2022/07/25 03:08:14;;;;;;;15.68;14.02;;;19.70;99.90;;;;;;7398174;19;20007;-88
2022/07/25 03:10:40;;;;;;;17.13;15.43;;;19.70;99.90;;;;;;7412060;19;20014;-85
2022/07/25 03:13:06;;;;;;;17.25;15.45;;;19.80;99.90;;;;;;7415455;19;20010;-87
2022/07/25 03:15:32;;;;;;;17.70;15.73;;;19.80;99.90;;;;;;7395202;19;20034;-88
2022/07/25 03:17:58;;;;;;;17.58;15.77;;;19.70;99.90;;;;;;7392938;19;20014;-89
2022/07/25 03:20:24;;;;;;;16.90;15.07;;;19.70;99.90;;;;;;7394790;19;20017;-88
2022/07/25 03:22:49;;;;;;;16.77;15.07;;;19.80;99.90;;;;;;7398040;19;20360;-88
2022/07/25 03:25:15;;;;;;;18.00;15.60;;;19.80;99.90;;;;;;7394625;19;20082;-88
2022/07/25 03:27:41;;;;;;;16.05;14.43;;;19.80;99.90;;;;;;7393783;19;20018;-88
2022/07/25 03:30:08;;;;;;;16.13;14.48;;;19.70;99.90;;;;;;7393399;19;20014;-89
2022/07/25 03:32:33;;;;;;;18.15;15.68;;;19.80;99.90;;;;;;7396332;19;20010;-87
2022/07/25 03:35:00;;;;;;;16.65;14.18;;;19.70;99.90;;;;;;7394704;19;20018;-88
2022/07/25 03:37:26;;;;;;;15.90;14.13;;;19.70;99.90;;;;;;7392453;19;20041;-88
2022/07/25 03:39:52;;;;;;;15.65;14.05;;;19.70;99.90;;;;;;7392853;19;20070;-89
2022/07/25 03:42:18;;;;;;;16.85;14.98;;;19.70;99.90;;;;;;7399011;19;20003;-88
2022/07/25 03:44:43;;;;;;;17.13;15.40;;;19.80;99.90;;;;;;7394094;19;20036;-88
2022/07/25 03:47:09;;;;;;;17.08;14.43;;;19.80;99.90;;;;;;7394825;19;20685;-88
2022/07/25 03:49:35;;;;;;;13.40;12.00;;;19.80;99.90;;;;;;7393675;19;20514;-89
2022/07/25 03:52:01;;;;;;;14.70;13.20;;;19.80;99.90;;;;;;7393186;19;20511;-88
2022/07/25 03:54:27;;;;;;;15.80;14.15;;;19.80;99.90;;;;;;7393310;19;20023;-88
2022/07/25 03:56:52;;;;;;;16.25;14.52;;;19.80;99.90;;;;;;7392461;19;20011;-88
2022/07/25 03:59:20;;;;;;;14.93;13.45;;;19.80;99.90;;;;;;7392823;19;20022;-89
2022/07/25 04:01:47;;;;;;;16.23;14.35;;;19.80;99.90;;;;;;7394440;19;20022;-88
2022/07/25 04:04:14;;;;;;;15.23;13.82;;;19.80;99.90;;;;;;7394490;19;20019;-88
2022/07/25 04:06:40;;;;;;;15.82;13.27;;;19.80;99.90;;;;;;7394834;19;20019;-89
2022/07/25 04:09:07;;;;;;;14.48;13.13;;;19.80;99.90;;;;;;7397124;19;20018;-88
2022/07/25 04:11:34;;;;;;;17.15;13.82;;;19.90;99.90;;;;;;7395017;19;20022;-88
2022/07/25 04:14:01;;;;;;;14.57;13.18;;;19.90;99.90;;;;;;7393340;19;20014;-89
2022/07/25 04:16:28;;;;;;;14.80;13.30;;;19.90;99.90;;;;;;7389134;19;20079;-89
2022/07/25 04:18:54;;;;;;;10.82;9.70;;;19.90;99.90;;;;;;7392581;19;20007;-89
2022/07/25 04:21:20;;;;;;;14.65;13.20;;;20.10;99.90;;;;;;7394532;19;20022;-89
2022/07/25 04:23:47;;;;;;;14.50;13.15;;;20.20;99.90;;;;;;7393859;19;20011;-90
2022/07/25 04:26:13;;;;;;;13.68;12.30;;;20.20;99.90;;;;;;7395108;19;20015;-89
2022/07/25 04:28:38;;;;;;;14.80;13.30;;;20.30;99.90;;;;;;7393343;19;20014;-90
2022/07/25 04:31:04;;;;;;;14.68;13.15;;;20.40;99.90;;;;;;7394836;19;20494;-89
2022/07/25 04:33:30;;;;;;;15.25;13.90;;;20.40;99.90;;;;;;7393397;19;20011;-90
2022/07/25 04:35:57;;;;;;;16.27;14.20;;;20.50;99.90;;;;;;7392355;19;21119;-89
2022/07/25 04:38:23;;;;;;;17.27;14.70;;;20.40;99.90;;;;;;7388240;19;20018;-88
2022/07/25 04:40:49;;;;;;;14.30;12.85;;;20.40;99.90;;;;;;7389123;19;20462;-86
2022/07/25 04:43:15;;;;;;;15.93;14.25;;;20.40;99.90;;;;;;7389413;19;20014;-85
2022/07/25 04:45:41;;;;;;;15.57;13.45;;;20.50;99.90;;;;;;7393717;19;20019;-84
2022/07/25 04:48:07;;;;;;;14.65;13.23;;;20.40;99.90;;;;;;7391272;19;20010;-86
2022/07/25 04:50:33;;;;;;;17.48;13.82;;;20.40;99.90;;;;;;7393084;19;20025;-86
2022/07/25 04:52:58;;;;;;;16.08;14.15;;;20.40;99.90;;;;;;7392141;19;20018;-85
2022/07/25 04:55:24;;;;;;;14.50;13.10;;;20.40;99.90;;;;;;7392990;19;20089;-86
2022/07/25 04:57:50;;;;;;;15.15;13.55;;;20.40;99.90;;;;;;7390836;19;20014;-85
2022/07/25 05:00:17;;;;;;;14.45;12.85;;;20.40;99.90;;;;;;7390505;19;20022;-86
2022/07/25 05:02:42;;;;;;;12.80;11.60;;;20.50;99.90;;;;;;7398603;19;20011;-83
2022/07/25 05:05:09;;;;;;;15.02;13.43;;;20.60;99.90;;;;;;7396749;19;20046;-85
2022/07/25 05:07:35;;;;;;;11.88;10.75;;;20.70;99.90;;;;;;7391377;19;20028;-86
2022/07/25 05:10:02;;;;;;;16.33;12.82;;;21.10;99.90;;;;;;7394258;19;20042;-86
2022/07/25 05:12:28;;;;;;;15.60;13.88;;;21.20;99.90;;;;;;7391549;19;20024;-86
2022/07/25 05:14:54;;;;;;;14.43;13.02;;;21.40;99.90;;;;;;7396332;19;20070;-86
2022/07/25 05:17:20;;;;;;;11.77;10.57;;;21.50;99.90;;;;;;7397165;19;20475;-86
2022/07/25 05:19:46;;;;;;;13.73;11.52;;;21.60;99.90;;;;;;7399223;19;20014;-85
2022/07/25 05:22:12;;;;;;;12.02;10.82;;;21.80;99.90;;;;;;7398424;19;20007;-84
2022/07/25 05:24:38;;;;;;;13.15;11.88;;;22.00;99.90;;;;;;7397725;19;20120;-84
2022/07/25 05:27:04;;;;;;;13.93;12.52;;;22.00;99.90;;;;;;7401568;19;20261;-85
2022/07/25 05:29:31;;;;;;;13.27;11.93;;;22.00;99.90;;;;;;7399306;19;20014;-85
2022/07/25 05:31:57;;;;;;;10.68;9.65;;;22.00;99.90;;;;;;7398467;19;20495;-86
2022/07/25 05:34:23;;;;;;;14.40;12.68;;;22.00;99.90;;;;;;7400775;19;20028;-85
2022/07/25 05:36:50;;;;;;;15.48;12.75;;;22.10;99.90;;;;;;7401603;19;20035;-86
2022/07/25 05:39:16;;;;;;;9.70;8.80;;;22.20;99.90;;;;;;7400674;19;20019;-85
2022/07/25 05:41:41;;;;;;;12.77;10.93;;;22.30;99.90;;;;;;7397699;19;20015;-86
2022/07/25 05:44:07;;;;;;;9.27;8.45;;;22.30;99.90;;;;;;7399572;19;20029;-86
2022/07/25 05:46:34;;;;;;;11.80;9.68;;;22.50;99.90;;;;;;7397410;19;20014;-86
2022/07/25 05:49:00;;;;;;;13.00;11.68;;;22.50;99.90;;;;;;7400073;19;20018;-86
2022/07/25 05:51:26;;;;;;;14.75;12.35;;;22.50;99.90;;;;;;7400436;19;20050;-82
2022/07/25 05:53:52;;;;;;;11.70;10.50;;;22.50;99.90;;;;;;7402877;19;20042;-95
2022/07/25 05:56:18;;;;;;;14.02;10.20;;;22.60;99.90;;;;;;7402469;19;20023;-83
2022/07/25 05:58:44;;;;;;;61.38;21.15;;;22.70;99.90;;;;;;7395239;19;20109;-83
2022/07/25 06:01:14;;;;;;;39.80;13.50;;;22.90;99.90;;;;;;7402123;19;20035;-86
2022/07/25 06:03:40;;;;;;;21.17;10.27;;;23.10;99.90;;;;;;7392312;19;20039;-84
2022/07/25 06:06:09;;;;;;;14.63;11.77;;;23.30;99.90;;;;;;7392740;19;20396;-83
2022/07/25 06:08:37;;;;;;;13.45;11.48;;;23.40;99.90;;;;;;7386178;19;20018;-83
2022/07/25 06:11:04;;;;;;;20.50;11.65;;;23.60;99.90;;;;;;7395277;19;20015;-84
2022/07/25 06:13:31;;;;;;;21.20;12.07;;;23.80;99.90;;;;;;7390507;19;20019;-83
2022/07/25 06:15:57;;;;;;;12.98;11.32;;;24.00;99.90;;;;;;7387923;19;20011;-84
2022/07/25 06:18:23;;;;;;;15.75;9.70;;;24.10;99.90;;;;;;7397931;19;20041;-85
2022/07/25 06:20:50;;;;;;;13.20;10.48;;;24.20;99.90;;;;;;7400051;19;20484;-85
2022/07/25 06:23:17;;;;;;;11.15;8.48;;;24.00;99.90;;;;;;7397446;19;20022;-85
2022/07/25 06:25:43;;;;;;;12.55;10.02;;;24.00;99.90;;;;;;7392652;19;20031;-86
2022/07/25 06:28:09;;;;;;;12.07;9.50;;;23.90;99.90;;;;;;7395023;19;20063;-85
2022/07/25 06:30:35;;;;;;;11.10;10.00;;;23.90;99.90;;;;;;7394079;19;20010;-85
2022/07/25 06:33:01;;;;;;;10.77;9.20;;;23.90;99.90;;;;;;7392587;19;20037;-85
2022/07/25 06:35:26;;;;;;;9.52;8.52;;;23.80;99.90;;;;;;7397066;19;20074;-85
2022/07/25 06:37:53;;;;;;;10.82;9.25;;;23.90;99.90;;;;;;7395800;19;20019;-85
2022/07/25 06:40:19;;;;;;;9.32;8.30;;;24.00;99.90;;;;;;7394274;19;20546;-85
2022/07/25 06:42:46;;;;;;;11.13;9.98;;;24.00;99.90;;;;;;7395351;19;20017;-85
2022/07/25 06:45:13;;;;;;;13.02;10.27;;;24.10;99.90;;;;;;7397348;19;20086;-85
2022/07/25 06:47:40;;;;;;;12.98;10.55;;;24.20;99.90;;;;;;7394972;19;20474;-85
2022/07/25 06:50:09;;;;;;;10.82;9.38;;;24.30;99.90;;;;;;7397656;19;20018;-85
2022/07/25 06:52:36;;;;;;;9.50;7.78;;;24.40;99.90;;;;;;7394926;19;20006;-84
2022/07/25 06:55:04;;;;;;;9.80;8.77;;;24.50;99.90;;;;;;7395585;19;20015;-86
2022/07/25 06:57:30;;;;;;;12.68;10.18;;;24.60;99.90;;;;;;7395308;19;20019;-85
2022/07/25 06:59:56;;;;;;;9.82;8.77;;;24.60;99.90;;;;;;7394090;19;20014;-85
2022/07/25 07:02:22;;;;;;;11.10;9.27;;;24.70;99.90;;;;;;7394810;19;20014;-86
2022/07/25 07:04:48;;;;;;;12.13;9.45;;;24.90;99.90;;;;;;7398179;19;20014;-85
2022/07/25 07:07:15;;;;;;;9.75;8.75;;;25.10;99.90;;;;;;7395913;19;20078;-86
2022/07/25 07:09:41;;;;;;;10.27;8.32;;;25.20;99.90;;;;;;7394032;19;20014;-85
2022/07/25 07:12:08;;;;;;;9.30;8.07;;;25.40;99.90;;;;;;7397085;19;20014;-86
2022/07/25 07:14:34;;;;;;;9.55;8.65;;;25.60;99.90;;;;;;7396503;19;20010;-85
2022/07/25 07:16:59;;;;;;;8.77;7.85;;;25.60;99.90;;;;;;7396017;19;20038;-86
2022/07/25 07:19:25;;;;;;;9.23;7.40;;;25.70;99.90;;;;;;7392499;19;20018;-86
2022/07/25 07:21:51;;;;;;;10.65;9.32;;;26.10;99.90;;;;;;7392120;19;20011;-86
2022/07/25 07:24:17;;;;;;;11.10;7.90;;;27.00;99.90;;;;;;7389491;19;20026;-86
2022/07/25 07:26:43;;;;;;;9.05;8.15;;;27.90;99.90;;;;;;7397973;19;20007;-86
2022/07/25 07:29:09;;;;;;;8.07;7.20;;;28.70;99.90;;;;;;7393509;19;20035;-86
2022/07/25 07:31:35;;;;;;;8.13;7.32;;;29.50;99.90;;;;;;7393598;19;20356;-86
2022/07/25 07:34:01;;;;;;;10.30;8.20;;;29.90;99.90;;;;;;7397482;19;20443;-86
2022/07/25 07:36:27;;;;;;;7.70;6.97;;;30.60;99.70;;;;;;7393095;19;20018;-86
2022/07/25 07:38:54;;;;;;;7.70;6.90;;;31.10;99.00;;;;;;7392813;19;20014;-86
2022/07/25 07:41:20;;;;;;;9.27;7.30;;;30.80;98.60;;;;;;7392222;19;20121;-86
2022/07/25 07:43:47;;;;;;;8.05;6.97;;;30.20;98.90;;;;;;7396764;19;20003;-86
2022/07/25 07:46:13;;;;;;;8.70;7.13;;;29.60;98.90;;;;;;7393839;19;20011;-86
2022/07/25 07:48:39;;;;;;;8.32;7.13;;;28.90;99.70;;;;;;7395610;19;20753;-86
2022/07/25 07:51:05;;;;;;;8.30;7.43;;;28.70;99.90;;;;;;7394006;19;20074;-86
2022/07/25 07:56:32;;;;;;;9.35;7.25;;;27.90;99.90;;;;;;7392259;19;20082;-86
2022/07/25 07:58:58;;;;;;;9.68;6.63;;;27.10;99.90;;;;;;7391186;19;20468;-86
2022/07/25 08:01:25;;;;;;;8.65;7.78;;;26.70;99.90;;;;;;7394151;19;20029;-87
2022/07/25 08:03:51;;;;;;;8.45;7.53;;;26.40;99.90;;;;;;7389804;19;20015;-85
2022/07/25 08:06:17;;;;;;;9.40;7.60;;;26.20;99.90;;;;;;7396917;19;20007;-86
2022/07/25 08:08:43;;;;;;;8.48;7.68;;;26.40;99.90;;;;;;7392635;19;20021;-86
2022/07/25 08:11:09;;;;;;;9.50;7.93;;;26.60;99.90;;;;;;7395520;19;20011;-87
2022/07/25 08:13:36;;;;;;;7.93;7.22;;;27.10;99.90;;;;;;7392734;19;20003;-86
2022/07/25 08:16:03;;;;;;;8.80;7.90;;;27.10;99.90;;;;;;7395176;19;20507;-86
2022/07/25 08:18:31;;;;;;;10.02;7.53;;;27.00;99.90;;;;;;7390841;19;20025;-85
2022/07/25 08:20:59;;;;;;;8.88;7.97;;;27.20;99.90;;;;;;7397126;19;20014;-85
2022/07/25 08:23:26;;;;;;;8.82;7.70;;;27.30;99.90;;;;;;7396034;19;20002;-86
2022/07/25 08:25:52;;;;;;;10.02;7.65;;;27.30;99.90;;;;;;7392450;19;20086;-86
2022/07/25 08:28:18;;;;;;;10.60;8.07;;;27.40;99.90;;;;;;7392228;19;20023;-86
2022/07/25 08:30:45;;;;;;;10.15;8.88;;;27.50;99.90;;;;;;7391163;19;20029;-85
2022/07/25 08:33:14;;;;;;;8.88;7.57;;;27.20;99.90;;;;;;7392206;19;20094;-86
2022/07/25 08:35:50;;;;;;;8.88;7.88;;;27.00;99.90;;;;;;7391277;19;20007;-85
2022/07/25 08:38:17;;;;;;;10.48;8.23;;;27.20;99.90;;;;;;7390656;19;20021;-83
2022/07/25 08:40:44;;;;;;;8.90;7.95;;;27.50;99.90;;;;;;7393425;19;20002;-85
2022/07/25 08:43:12;;;;;;;9.57;7.40;;;27.50;99.90;;;;;;7387910;19;20015;-85
2022/07/25 08:45:44;;;;;;;8.73;6.97;;;27.30;99.90;;;;;;7395745;19;20015;-85
2022/07/25 08:48:10;;;;;;;9.30;7.38;;;26.90;99.90;;;;;;7390082;19;20088;-85
2022/07/25 08:50:37;;;;;;;8.48;7.68;;;26.50;99.90;;;;;;7397472;19;20351;-85
2022/07/25 08:53:04;;;;;;;9.40;7.57;;;26.30;99.90;;;;;;7399337;19;20045;-85
2022/07/25 08:55:30;;;;;;;8.43;7.53;;;26.10;99.90;;;;;;7396653;19;20025;-85
2022/07/25 08:57:56;;;;;;;10.35;7.50;;;26.10;99.90;;;;;;7395563;19;20003;-85
2022/07/25 09:00:25;;;;;;;9.55;7.75;;;26.10;99.90;;;;;;7399081;19;20018;-85
2022/07/25 09:03:00;;;;;;;7.70;6.85;;;26.20;99.90;;;;;;7398806;19;20015;-85
2022/07/25 09:05:29;;;;;;;9.10;7.10;;;26.20;99.90;;;;;;7397976;19;20034;-85
2022/07/25 09:07:56;;;;;;;8.20;7.45;;;26.10;99.90;;;;;;7399128;19;20022;-85
2022/07/25 09:10:25;;;;;;;7.43;6.53;;;26.10;99.90;;;;;;7399559;19;20070;-85
2022/07/25 09:12:55;;;;;;;7.13;6.43;;;26.10;99.90;;;;;;7397854;19;20037;-85
2022/07/25 09:15:32;;;;;;;7.10;6.28;;;26.20;99.90;;;;;;7399036;19;20018;-86
2022/07/25 09:18:06;;;;;;;7.65;6.60;;;26.10;99.90;;;;;;7395727;19;20048;-85
2022/07/25 09:20:41;;;;;;;7.03;6.40;;;26.00;99.90;;;;;;7396487;19;20036;-85
2022/07/25 09:23:08;;;;;;;7.03;6.28;;;25.90;99.90;;;;;;7399357;19;20042;-85
2022/07/25 09:25:35;;;;;;;8.40;6.90;;;25.80;99.90;;;;;;7397413;19;20007;-85
2022/07/25 09:28:16;;;;;;;7.68;6.38;;;25.70;99.90;;;;;;7400299;19;20050;-86
2022/07/25 09:30:55;;;;;;;11.40;7.60;;;25.60;99.90;;;;;;7397423;19;20451;-86
2022/07/25 09:33:23;;;;;;;9.55;7.28;;;25.50;99.90;;;;;;7398982;19;20487;-86
2022/07/25 09:35:49;;;;;;;7.70;6.50;;;25.50;99.90;;;;;;7396580;19;20011;-85
2022/07/25 09:38:17;;;;;;;9.07;6.60;;;25.60;99.90;;;;;;7399304;19;20022;-85
2022/07/25 09:40:58;;;;;;;7.15;6.45;;;25.60;99.90;;;;;;7397696;19;20562;-85
2022/07/25 09:43:41;;;;;;;6.20;5.60;;;25.60;99.90;;;;;;7400081;19;20025;-85
2022/07/25 09:46:09;;;;;;;7.47;5.45;;;25.70;99.90;;;;;;7398105;19;20038;-86
2022/07/25 09:48:38;;;;;;;7.95;6.00;;;25.60;99.90;;;;;;7401276;19;20011;-86
2022/07/25 09:51:05;;;;;;;6.93;5.82;;;25.60;99.90;;;;;;7394750;19;20010;-85
2022/07/25 09:53:31;;;;;;;5.72;5.15;;;25.50;99.90;;;;;;7394003;19;20022;-85
2022/07/25 09:55:57;;;;;;;6.28;5.30;;;25.50;99.90;;;;;;7396702;19;20022;-87
2022/07/25 09:58:23;;;;;;;7.05;5.43;;;25.60;99.90;;;;;;7391702;19;20014;-89
2022/07/25 10:00:52;;;;;;;6.68;5.45;;;25.70;99.90;;;;;;7398767;19;20014;-90
2022/07/25 10:03:49;;;;;;;6.30;5.57;;;25.80;99.90;;;;;;7396773;19;20017;-88
2022/07/25 10:06:29;;;;;;;6.95;5.32;;;25.80;99.90;;;;;;7398547;19;20015;-87
2022/07/25 10:08:57;;;;;;;8.48;5.63;;;25.90;99.90;;;;;;7398160;19;20002;-87
2022/07/25 10:11:25;;;;;;;8.07;6.43;;;25.90;99.90;;;;;;7397099;19;20052;-88
2022/07/25 10:13:53;;;;;;;7.05;5.50;;;25.90;99.90;;;;;;7395392;19;20015;-86
2022/07/25 10:16:23;;;;;;;5.78;4.80;;;25.90;99.90;;;;;;7396607;19;20010;-87
2022/07/25 10:18:55;;;;;;;7.15;5.53;;;25.90;99.90;;;;;;7397849;19;20015;-85
2022/07/25 10:21:22;;;;;;;7.43;5.50;;;25.90;99.90;;;;;;7398338;19;20018;-85
2022/07/25 10:24:06;;;;;;;5.70;4.90;;;25.80;99.90;;;;;;7394807;19;20011;-85
2022/07/25 10:26:35;;;;;;;6.70;5.50;;;25.80;99.90;;;;;;7397909;19;20361;-86
2022/07/25 10:29:07;;;;;;;5.70;4.75;;;25.90;99.90;;;;;;7396001;19;20023;-86
2022/07/25 10:31:41;;;;;;;9.40;5.50;;;26.00;99.90;;;;;;7395083;19;20018;-85
2022/07/25 10:34:09;;;;;;;7.68;5.30;;;26.00;99.90;;;;;;7396537;19;20420;-86
2022/07/25 10:36:55;;;;;;;6.93;5.45;;;26.00;99.90;;;;;;7394261;19;20014;-86
2022/07/25 10:39:21;;;;;;;5.97;4.88;;;25.80;99.90;;;;;;7395063;19;20357;-87
2022/07/25 10:42:04;;;;;;;5.40;4.88;;;25.70;99.90;;;;;;7396765;19;20621;-87
2022/07/25 10:44:42;;;;;;;5.15;4.57;;;25.70;99.90;;;;;;7397058;19;20066;-87
2022/07/25 10:47:10;;;;;;;4.60;4.07;;;25.60;99.90;;;;;;7394940;19;20014;-85
2022/07/25 10:49:40;;;;;;;4.45;3.80;;;25.60;99.90;;;;;;7394731;19;20019;-87
2022/07/25 10:52:16;;;;;;;6.35;3.90;;;25.60;99.90;;;;;;7395798;19;20010;-87
2022/07/25 10:54:52;;;;;;;4.18;3.47;;;25.80;99.90;;;;;;7396367;19;20981;-88
2022/07/25 10:57:18;;;;;;;4.03;3.50;;;25.80;99.90;;;;;;7394037;19;20017;-87
2022/07/25 10:59:45;;;;;;;8.27;3.33;;;25.90;99.90;;;;;;7393613;19;20014;-86
2022/07/25 11:02:18;;;;;;;4.10;3.05;;;25.90;99.90;;;;;;7396169;19;20793;-87
2022/07/25 11:05:10;;;;;;;;;;;25.90;99.90;;;;;;7394439;19;20022;-85
2022/07/25 11:07:36;;;;;;;3.58;2.50;;;26.00;99.90;;;;;;7393449;19;20001;-85
2022/07/25 11:10:04;;;;;;;3.55;2.33;;;25.90;99.90;;;;;;7389515;19;20022;-84
2022/07/25 11:12:30;;;;;;;2.45;2.25;;;25.90;99.90;;;;;;7394034;19;20031;-84
2022/07/25 11:15:05;;;;;;;4.88;2.35;;;25.80;99.90;;;;;;7393091;19;20018;-85
2022/07/25 11:17:33;;;;;;;3.20;2.13;;;25.70;99.90;;;;;;7396411;19;20027;-86
2022/07/25 11:20:05;;;;;;;2.33;2.13;;;25.70;99.90;;;;;;7393208;19;20034;-87
2022/07/25 11:22:31;;;;;;;3.85;2.42;;;25.60;99.90;;;;;;7393416;19;20015;-85
2022/07/25 11:24:59;;;;;;;2.50;2.00;;;25.60;99.90;;;;;;7392824;19;20022;-84
2022/07/25 11:27:26;;;;;;;2.75;1.98;;;25.50;99.90;;;;;;7394322;19;20446;-88
2022/07/25 11:29:52;;;;;;;3.05;1.90;;;25.40;99.90;;;;;;7392855;19;20022;-85
2022/07/25 11:32:18;;;;;;;1.85;1.60;;;25.40;99.90;;;;;;7391885;19;20033;-84
2022/07/25 11:34:51;;;;;;;2.33;1.50;;;25.30;99.90;;;;;;7388404;19;20018;-84
2022/07/25 11:37:18;;;;;;;2.00;1.17;;;25.30;99.90;;;;;;7393892;19;20010;-84
2022/07/25 11:39:45;;;;;;;2.63;1.30;;;25.10;99.90;;;;;;7395706;19;20029;-84
2022/07/25 11:42:15;;;;;;;4.57;1.38;;;25.00;99.90;;;;;;7392263;19;20462;-84
2022/07/25 11:44:42;;;;;;;3.97;1.00;;;25.00;99.90;;;;;;7392956;19;20015;-84
2022/07/25 11:47:21;;;;;;;3.97;1.10;;;25.00;99.90;;;;;;7396725;19;20499;-84
2022/07/25 11:49:51;;;;;;;1.92;1.40;;;25.00;99.90;;;;;;7393204;19;20018;-84
2022/07/25 11:52:18;;;;;;;3.30;1.25;;;25.00;99.90;;;;;;7393621;19;20014;-84
2022/07/25 11:54:56;;;;;;;1.52;1.35;;;25.20;99.90;;;;;;7390847;19;20030;-84
2022/07/25 11:57:33;;;;;;;3.25;1.23;;;25.30;99.90;;;;;;7395313;19;20489;-84
2022/07/25 12:00:20;;;;;;;2.28;1.50;;;25.60;99.90;;;;;;7396020;19;20073;-84
2022/07/25 12:02:48;;;;;;;6.65;1.50;;;25.70;99.90;;;;;;7395167;19;20026;-83
2022/07/25 12:05:17;;;;;;;4.93;1.50;;;25.60;99.90;;;;;;7394446;19;20483;-84
2022/07/25 12:07:47;;;;;;;4.60;2.28;;;25.60;99.90;;;;;;7394337;19;20044;-83
2022/07/25 12:10:20;;;;;;;3.53;1.88;;;25.50;99.90;;;;;;7392563;19;20011;-83
2022/07/25 12:12:56;;;;;;;3.45;1.90;;;25.50;99.90;;;;;;7390309;19;20047;-84
2022/07/25 12:15:24;;;;;;;2.60;1.50;;;25.50;99.90;;;;;;7388507;19;20018;-84
2022/07/25 12:17:51;;;;;;;7.20;2.00;;;25.50;99.90;;;;;;7391826;19;20011;-85
2022/07/25 12:20:19;;;;;;;9.10;1.90;;;25.50;99.90;;;;;;7392272;19;20018;-85
2022/07/25 12:22:50;;;;;;;2.80;1.55;;;25.50;99.90;;;;;;7392896;19;20015;-84
2022/07/25 12:25:16;;;;;;;4.55;1.70;;;25.30;99.90;;;;;;7392974;19;20491;-84
2022/07/25 12:27:42;;;;;;;4.15;1.80;;;25.30;99.90;;;;;;7403146;19;20025;-85
2022/07/25 12:30:09;;;;;;;3.60;1.83;;;25.30;99.90;;;;;;7401414;19;20045;-84
2022/07/25 12:32:35;;;;;;;4.05;2.10;;;25.30;99.90;;;;;;7400363;19;20027;-85
2022/07/25 12:35:03;;;;;;;5.32;1.88;;;25.20;99.90;;;;;;7395466;19;20329;-85
2022/07/25 12:37:29;;;;;;;4.35;1.90;;;25.10;99.90;;;;;;7400159;19;20475;-85
2022/07/25 12:39:55;;;;;;;4.68;2.00;;;25.20;99.90;;;;;;7399514;19;20032;-84
2022/07/25 12:42:23;;;;;;;5.38;1.98;;;25.20;99.90;;;;;;7399023;19;20011;-85